EST,Max TemperatureF,Mean TemperatureF,Min TemperatureF,Max Dew PointF,MeanDew PointF,Min DewpointF,Max Humidity, Mean Humidity, Min Humidity, Max Sea Level PressureIn, Mean Sea Level PressureIn, Min Sea Level PressureIn, Max VisibilityMiles, Mean VisibilityMiles, Min VisibilityMiles, Max Wind SpeedMPH, Mean Wind SpeedMPH, Max Gust SpeedMPH,PrecipitationIn, CloudCover, Events, WindDirDegrees
2014-1-1,49,39,29,27,24,20,78,56,34,30.31,30.19,30.01,10,10,10,13,6,16,0.00,5,,178
2014-1-2,41,29,16,36,25,7,100,76,51,30.36,30.00,29.84,10,6,2,25,12,32,0.21,8,Rain-Snow,314
2014-1-3,25,19,12,10,6,2,73,59,44,30.57,30.44,30.27,10,10,10,17,7,25,0.00,1,,99
2014-1-4,43,31,18,21,14,10,67,50,33,30.26,30.16,30.05,10,10,10,21,10,28,0.00,3,,175
2014-1-5,56,38,19,46,34,11,100,72,43,30.06,29.75,29.51,10,7,2,32,11,39,0.58,8,Rain-Snow,226
2014-1-6,19,8,-3,10,-6,-14,72,64,56,30.53,30.31,29.95,10,9,2,31,18,41,T,6,Snow,282
2014-1-7,16,7,-2,3,-5,-12,65,56,46,30.58,30.50,30.42,10,10,10,17,9,25,0.00,1,,214
2014-1-8,35,23,11,19,11,3,70,57,43,30.49,30.45,30.42,10,10,9,14,6,17,T,7,Snow,170
2014-1-9,42,36,29,32,26,19,92,66,39,30.50,30.42,30.28,10,8,2,15,4,20,0.05,8,Rain-Snow,137
2014-1-10,55,45,35,49,42,32,92,85,77,30.26,30.04,29.70,10,9,6,21,8,29,T,8,Rain-Thunderstorm,148
2014-1-11,54,46,37,52,44,32,100,82,63,29.88,29.66,29.53,10,8,2,29,11,38,0.98,7,Rain-Thunderstorm,231
2014-1-12,52,43,33,34,31,28,89,67,44,30.09,29.99,29.89,10,10,8,18,9,24,0.00,2,,209
2014-1-13,54,50,46,48,41,29,93,68,42,29.91,29.80,29.73,10,9,5,22,11,30,0.23,8,Rain,208
2014-1-14,54,43,31,40,33,24,92,68,44,30.00,29.88,29.80,10,10,6,25,9,32,0.01,4,Rain,265
2014-1-15,35,29,22,21,17,14,69,61,53,30.14,30.09,30.00,10,10,8,18,9,23,T,7,Snow,284
2014-1-16,37,29,20,32,21,14,82,65,47,30.10,29.92,29.78,10,9,2,17,10,23,0.01,7,Rain-Snow,192
2014-1-17,36,26,16,32,19,7,89,75,61,30.14,29.94,29.77,10,6,1,21,11,25,0.06,8,Snow,254
2014-1-18,36,27,17,23,16,9,80,67,53,30.12,29.97,29.80,10,10,9,22,8,28,T,7,Snow,193
2014-1-19,40,33,26,32,24,19,89,70,50,30.08,29.94,29.78,10,10,10,20,12,26,T,5,Rain,245
2014-1-20,53,45,37,30,27,22,70,54,38,29.92,29.87,29.81,10,10,10,17,7,22,0.00,5,,266
2014-1-21,38,24,9,32,19,-2,96,71,46,30.26,29.95,29.79,10,4,0,33,13,41,0.15,6,Fog-Snow,339
2014-1-22,22,14,5,16,4,-2,83,68,53,30.25,30.17,30.08,10,10,4,13,7,16,T,6,Snow,197
2014-1-23,22,14,5,18,1,-6,69,58,46,30.71,30.46,30.13,10,9,1,22,12,28,0.01,4,Snow,300
2014-1-24,25,14,2,3,-1,-5,79,58,36,30.72,30.44,29.96,10,10,10,24,11,31,0.00,4,,214
2014-1-25,40,29,18,23,16,1,88,58,28,30.00,29.76,29.64,10,6,1,41,17,55,0.12,6,Snow,236
2014-1-26,53,35,17,34,19,3,67,51,35,29.99,29.74,29.60,10,10,10,25,9,32,0.00,5,,215
2014-1-27,50,30,10,35,3,-6,63,49,34,30.47,30.20,29.67,10,10,10,31,14,41,0.00,6,,309
2014-1-28,15,9,3,-3,-6,-9,68,52,36,30.52,30.46,30.39,10,10,10,15,5,17,0.00,5,,1
2014-1-29,28,16,4,2,-1,-4,79,55,31,30.45,30.39,30.34,10,10,10,15,6,20,0.00,0,,207
2014-1-30,39,26,12,3,1,-2,61,40,19,30.32,30.16,29.98,10,10,10,21,10,24,0.00,4,,169
2014-1-31,45,39,32,21,11,2,41,31,20,30.17,30.10,30.05,10,10,10,13,6,17,0.00,7,,169